sensor_id;sensor_type;location;lat;lon;timestamp;P1;durP1;ratioP1;P2;durP2;ratioP2
10863;SDS011;5485;37.558;126.950;2022-07-15T00:00:56;12.23;;;11.00;;
10863;SDS011;5485;37.558;126.950;2022-07-15T00:03:23;12.98;;;11.77;;
10863;SDS011;5485;37.558;126.950;2022-07-15T00:05:50;12.90;;;11.57;;
10863;SDS011;5485;37.558;126.950;2022-07-15T00:08:17;12.50;;;11.13;;
10863;SDS011;5485;37.558;126.950;2022-07-15T00:10:44;16.85;;;13.20;;
10863;SDS011;5485;37.558;126.950;2022-07-15T00:13:11;16.60;;;13.50;;
10863;SDS011;5485;37.558;126.950;2022-07-15T00:15:38;13.70;;;11.90;;
10863;SDS011;5485;37.558;126.950;2022-07-15T00:18:06;11.48;;;10.43;;
10863;SDS011;5485;37.558;126.950;2022-07-15T00:20:33;10.85;;;9.75;;
10863;SDS011;5485;37.558;126.950;2022-07-15T00:23:01;12.15;;;9.80;;
10863;SDS011;5485;37.558;126.950;2022-07-15T00:25:29;10.05;;;8.82;;
10863;SDS011;5485;37.558;126.950;2022-07-15T00:27:59;11.20;;;9.73;;
10863;SDS011;5485;37.558;126.950;2022-07-15T00:30:32;12.10;;;10.00;;
10863;SDS011;5485;37.558;126.950;2022-07-15T00:33:01;12.65;;;8.63;;
10863;SDS011;5485;37.558;126.950;2022-07-15T00:35:29;12.18;;;9.30;;
10863;SDS011;5485;37.558;126.950;2022-07-15T00:38:01;9.38;;;8.38;;
10863;SDS011;5485;37.558;126.950;2022-07-15T00:40:29;13.73;;;8.55;;
10863;SDS011;5485;37.558;126.950;2022-07-15T00:42:56;11.57;;;8.65;;
10863;SDS011;5485;37.558;126.950;2022-07-15T00:45:23;9.50;;;7.88;;
10863;SDS011;5485;37.558;126.950;2022-07-15T00:47:52;8.98;;;7.95;;
10863;SDS011;5485;37.558;126.950;2022-07-15T00:50:21;10.57;;;9.57;;
10863;SDS011;5485;37.558;126.950;2022-07-15T00:52:53;11.82;;;9.65;;
10863;SDS011;5485;37.558;126.950;2022-07-15T00:55:21;8.73;;;7.82;;
10863;SDS011;5485;37.558;126.950;2022-07-15T00:57:49;12.13;;;9.00;;
10863;SDS011;5485;37.558;126.950;2022-07-15T01:03:04;10.52;;;9.40;;
10863;SDS011;5485;37.558;126.950;2022-07-15T01:05:32;10.52;;;9.05;;
10863;SDS011;5485;37.558;126.950;2022-07-15T01:08:00;10.55;;;9.38;;
10863;SDS011;5485;37.558;126.950;2022-07-15T01:10:27;13.43;;;9.68;;
10863;SDS011;5485;37.558;126.950;2022-07-15T01:12:56;10.93;;;8.85;;
10863;SDS011;5485;37.558;126.950;2022-07-15T01:15:28;9.98;;;9.02;;
10863;SDS011;5485;37.558;126.950;2022-07-15T01:17:57;12.05;;;8.50;;
10863;SDS011;5485;37.558;126.950;2022-07-15T01:20:26;12.60;;;9.45;;
10863;SDS011;5485;37.558;126.950;2022-07-15T01:22:53;9.98;;;9.07;;
10863;SDS011;5485;37.558;126.950;2022-07-15T01:25:21;8.57;;;7.60;;
10863;SDS011;5485;37.558;126.950;2022-07-15T01:27:48;11.02;;;9.88;;
10863;SDS011;5485;37.558;126.950;2022-07-15T01:30:18;9.82;;;8.65;;
10863;SDS011;5485;37.558;126.950;2022-07-15T01:32:45;12.30;;;9.50;;
10863;SDS011;5485;37.558;126.950;2022-07-15T01:35:12;10.18;;;9.18;;
10863;SDS011;5485;37.558;126.950;2022-07-15T01:37:39;10.50;;;9.30;;
10863;SDS011;5485;37.558;126.950;2022-07-15T01:40:06;10.57;;;9.32;;
10863;SDS011;5485;37.558;126.950;2022-07-15T01:42:33;11.88;;;10.45;;
10863;SDS011;5485;37.558;126.950;2022-07-15T01:45:00;12.38;;;11.07;;
10863;SDS011;5485;37.558;126.950;2022-07-15T01:47:27;10.38;;;9.40;;
10863;SDS011;5485;37.558;126.950;2022-07-15T01:49:54;14.88;;;9.90;;
10863;SDS011;5485;37.558;126.950;2022-07-15T01:52:22;9.88;;;8.90;;
10863;SDS011;5485;37.558;126.950;2022-07-15T01:55:07;12.85;;;11.50;;
10863;SDS011;5485;37.558;126.950;2022-07-15T01:57:35;11.70;;;10.60;;
10863;SDS011;5485;37.558;126.950;2022-07-15T02:00:03;13.38;;;10.25;;
10863;SDS011;5485;37.558;126.950;2022-07-15T02:02:32;10.55;;;9.52;;
10863;SDS011;5485;37.558;126.950;2022-07-15T02:05:02;11.85;;;8.85;;
10863;SDS011;5485;37.558;126.950;2022-07-15T02:07:29;11.23;;;10.13;;
10863;SDS011;5485;37.558;126.950;2022-07-15T02:09:57;12.30;;;8.80;;
10863;SDS011;5485;37.558;126.950;2022-07-15T02:12:23;10.23;;;9.30;;
10863;SDS011;5485;37.558;126.950;2022-07-15T02:14:50;10.48;;;9.48;;
10863;SDS011;5485;37.558;126.950;2022-07-15T02:17:17;10.93;;;9.80;;
10863;SDS011;5485;37.558;126.950;2022-07-15T02:19:45;10.48;;;9.10;;
10863;SDS011;5485;37.558;126.950;2022-07-15T02:22:12;11.43;;;9.43;;
10863;SDS011;5485;37.558;126.950;2022-07-15T02:24:38;10.23;;;8.60;;
10863;SDS011;5485;37.558;126.950;2022-07-15T02:27:05;12.95;;;10.27;;
10863;SDS011;5485;37.558;126.950;2022-07-15T02:29:33;10.18;;;9.10;;
10863;SDS011;5485;37.558;126.950;2022-07-15T02:32:00;13.43;;;10.20;;
10863;SDS011;5485;37.558;126.950;2022-07-15T02:34:27;13.65;;;9.85;;
10863;SDS011;5485;37.558;126.950;2022-07-15T02:36:54;10.15;;;9.13;;
10863;SDS011;5485;37.558;126.950;2022-07-15T02:39:20;16.23;;;10.30;;
10863;SDS011;5485;37.558;126.950;2022-07-15T02:41:47;13.10;;;9.32;;
10863;SDS011;5485;37.558;126.950;2022-07-15T02:44:14;10.68;;;9.75;;
10863;SDS011;5485;37.558;126.950;2022-07-15T02:46:41;9.02;;;7.78;;
10863;SDS011;5485;37.558;126.950;2022-07-15T02:49:08;11.80;;;8.32;;
10863;SDS011;5485;37.558;126.950;2022-07-15T02:51:36;9.73;;;8.13;;
10863;SDS011;5485;37.558;126.950;2022-07-15T02:54:03;15.95;;;8.85;;
10863;SDS011;5485;37.558;126.950;2022-07-15T02:56:30;9.18;;;8.25;;
10863;SDS011;5485;37.558;126.950;2022-07-15T02:58:57;9.02;;;8.07;;
10863;SDS011;5485;37.558;126.950;2022-07-15T03:04:16;10.60;;;7.70;;
10863;SDS011;5485;37.558;126.950;2022-07-15T03:06:43;13.43;;;8.60;;
10863;SDS011;5485;37.558;126.950;2022-07-15T03:09:09;10.10;;;8.80;;
10863;SDS011;5485;37.558;126.950;2022-07-15T03:11:36;10.13;;;8.15;;
10863;SDS011;5485;37.558;126.950;2022-07-15T03:14:03;13.23;;;9.55;;
10863;SDS011;5485;37.558;126.950;2022-07-15T03:16:31;9.52;;;8.32;;
10863;SDS011;5485;37.558;126.950;2022-07-15T03:18:59;9.30;;;8.40;;
10863;SDS011;5485;37.558;126.950;2022-07-15T03:21:26;11.15;;;9.40;;
10863;SDS011;5485;37.558;126.950;2022-07-15T03:23:53;11.98;;;9.05;;
10863;SDS011;5485;37.558;126.950;2022-07-15T03:26:19;10.35;;;9.10;;
10863;SDS011;5485;37.558;126.950;2022-07-15T03:28:46;12.25;;;10.10;;
10863;SDS011;5485;37.558;126.950;2022-07-15T03:31:13;10.20;;;8.80;;
10863;SDS011;5485;37.558;126.950;2022-07-15T03:33:40;10.98;;;9.90;;
10863;SDS011;5485;37.558;126.950;2022-07-15T03:36:08;12.23;;;10.70;;
10863;SDS011;5485;37.558;126.950;2022-07-15T03:38:34;12.20;;;10.77;;
10863;SDS011;5485;37.558;126.950;2022-07-15T03:41:01;12.88;;;11.70;;
10863;SDS011;5485;37.558;126.950;2022-07-15T03:43:28;14.52;;;12.77;;
10863;SDS011;5485;37.558;126.950;2022-07-15T03:45:55;14.95;;;13.50;;
10863;SDS011;5485;37.558;126.950;2022-07-15T03:48:22;14.65;;;12.60;;
10863;SDS011;5485;37.558;126.950;2022-07-15T03:50:49;17.58;;;15.82;;
10863;SDS011;5485;37.558;126.950;2022-07-15T03:53:16;17.20;;;15.55;;
10863;SDS011;5485;37.558;126.950;2022-07-15T03:55:43;21.35;;;19.10;;
10863;SDS011;5485;37.558;126.950;2022-07-15T03:58:10;107.97;;;96.85;;
10863;SDS011;5485;37.558;126.950;2022-07-15T04:00:37;20.77;;;18.65;;
10863;SDS011;5485;37.558;126.950;2022-07-15T04:03:03;19.30;;;17.27;;
10863;SDS011;5485;37.558;126.950;2022-07-15T04:05:30;19.48;;;17.42;;
10863;SDS011;5485;37.558;126.950;2022-07-15T04:07:57;18.83;;;17.13;;
10863;SDS011;5485;37.558;126.950;2022-07-15T04:10:24;20.50;;;16.92;;
10863;SDS011;5485;37.558;126.950;2022-07-15T04:12:51;21.00;;;18.45;;
10863;SDS011;5485;37.558;126.950;2022-07-15T04:15:18;18.75;;;16.98;;
10863;SDS011;5485;37.558;126.950;2022-07-15T04:17:45;19.58;;;17.58;;
10863;SDS011;5485;37.558;126.950;2022-07-15T04:20:12;19.27;;;17.38;;
10863;SDS011;5485;37.558;126.950;2022-07-15T04:22:39;17.80;;;16.10;;
10863;SDS011;5485;37.558;126.950;2022-07-15T04:25:08;20.08;;;18.02;;
10863;SDS011;5485;37.558;126.950;2022-07-15T04:27:35;19.05;;;17.25;;
10863;SDS011;5485;37.558;126.950;2022-07-15T04:30:03;19.58;;;17.48;;
10863;SDS011;5485;37.558;126.950;2022-07-15T04:32:31;16.80;;;15.23;;
10863;SDS011;5485;37.558;126.950;2022-07-15T04:34:58;19.08;;;16.05;;
10863;SDS011;5485;37.558;126.950;2022-07-15T04:37:25;16.33;;;14.82;;
10863;SDS011;5485;37.558;126.950;2022-07-15T04:39:51;18.95;;;17.08;;
10863;SDS011;5485;37.558;126.950;2022-07-15T04:42:18;17.33;;;15.52;;
10863;SDS011;5485;37.558;126.950;2022-07-15T04:44:45;18.65;;;15.27;;
10863;SDS011;5485;37.558;126.950;2022-07-15T04:47:13;16.98;;;15.20;;
10863;SDS011;5485;37.558;126.950;2022-07-15T04:49:40;15.38;;;13.88;;
10863;SDS011;5485;37.558;126.950;2022-07-15T04:52:28;15.60;;;13.93;;
10863;SDS011;5485;37.558;126.950;2022-07-15T04:54:56;13.95;;;12.30;;
10863;SDS011;5485;37.558;126.950;2022-07-15T04:57:23;12.77;;;11.57;;
10863;SDS011;5485;37.558;126.950;2022-07-15T04:59:50;13.05;;;11.75;;
10863;SDS011;5485;37.558;126.950;2022-07-15T05:02:16;13.18;;;11.85;;
10863;SDS011;5485;37.558;126.950;2022-07-15T05:04:43;12.35;;;11.10;;
10863;SDS011;5485;37.558;126.950;2022-07-15T05:07:12;13.82;;;11.27;;
10863;SDS011;5485;37.558;126.950;2022-07-15T05:09:39;12.85;;;11.55;;
10863;SDS011;5485;37.558;126.950;2022-07-15T05:12:06;12.90;;;11.70;;
10863;SDS011;5485;37.558;126.950;2022-07-15T05:14:33;15.82;;;12.50;;
10863;SDS011;5485;37.558;126.950;2022-07-15T05:17:00;15.38;;;11.93;;
10863;SDS011;5485;37.558;126.950;2022-07-15T05:19:27;14.38;;;12.88;;
10863;SDS011;5485;37.558;126.950;2022-07-15T05:21:54;12.52;;;10.95;;
10863;SDS011;5485;37.558;126.950;2022-07-15T05:24:20;12.65;;;10.77;;
10863;SDS011;5485;37.558;126.950;2022-07-15T05:26:47;12.82;;;11.10;;
10863;SDS011;5485;37.558;126.950;2022-07-15T05:29:14;13.88;;;11.50;;
10863;SDS011;5485;37.558;126.950;2022-07-15T05:31:41;12.18;;;11.07;;
10863;SDS011;5485;37.558;126.950;2022-07-15T05:34:08;15.20;;;13.55;;
10863;SDS011;5485;37.558;126.950;2022-07-15T05:36:35;12.98;;;11.68;;
10863;SDS011;5485;37.558;126.950;2022-07-15T05:39:02;13.20;;;11.98;;
10863;SDS011;5485;37.558;126.950;2022-07-15T05:41:29;14.05;;;12.70;;
10863;SDS011;5485;37.558;126.950;2022-07-15T05:43:57;12.77;;;11.50;;
10863;SDS011;5485;37.558;126.950;2022-07-15T05:46:25;12.93;;;11.57;;
10863;SDS011;5485;37.558;126.950;2022-07-15T05:48:52;12.65;;;11.40;;
10863;SDS011;5485;37.558;126.950;2022-07-15T05:51:19;11.07;;;10.02;;
10863;SDS011;5485;37.558;126.950;2022-07-15T05:53:45;11.70;;;10.70;;
10863;SDS011;5485;37.558;126.950;2022-07-15T05:56:12;11.85;;;10.75;;
10863;SDS011;5485;37.558;126.950;2022-07-15T05:58:40;11.57;;;10.38;;
10863;SDS011;5485;37.558;126.950;2022-07-15T06:01:07;10.60;;;9.65;;
10863;SDS011;5485;37.558;126.950;2022-07-15T06:03:35;11.82;;;10.48;;
10863;SDS011;5485;37.558;126.950;2022-07-15T06:06:02;11.38;;;10.27;;
10863;SDS011;5485;37.558;126.950;2022-07-15T06:08:32;12.68;;;10.85;;
10863;SDS011;5485;37.558;126.950;2022-07-15T06:10:59;11.98;;;10.77;;
10863;SDS011;5485;37.558;126.950;2022-07-15T06:13:26;12.23;;;11.02;;
10863;SDS011;5485;37.558;126.950;2022-07-15T06:15:53;12.02;;;10.48;;
10863;SDS011;5485;37.558;126.950;2022-07-15T06:18:20;12.35;;;10.52;;
10863;SDS011;5485;37.558;126.950;2022-07-15T06:20:47;11.35;;;10.15;;
10863;SDS011;5485;37.558;126.950;2022-07-15T06:23:14;10.10;;;9.10;;
10863;SDS011;5485;37.558;126.950;2022-07-15T06:25:41;12.02;;;9.68;;
10863;SDS011;5485;37.558;126.950;2022-07-15T06:28:08;11.30;;;10.20;;
10863;SDS011;5485;37.558;126.950;2022-07-15T06:30:35;11.90;;;9.73;;
10863;SDS011;5485;37.558;126.950;2022-07-15T06:33:02;11.15;;;9.77;;
10863;SDS011;5485;37.558;126.950;2022-07-15T06:35:29;9.65;;;8.75;;
10863;SDS011;5485;37.558;126.950;2022-07-15T06:37:55;10.05;;;8.70;;
10863;SDS011;5485;37.558;126.950;2022-07-15T06:40:22;10.35;;;9.45;;
10863;SDS011;5485;37.558;126.950;2022-07-15T06:42:49;10.63;;;9.63;;
10863;SDS011;5485;37.558;126.950;2022-07-15T06:45:16;9.13;;;8.35;;
10863;SDS011;5485;37.558;126.950;2022-07-15T06:47:43;10.50;;;8.77;;
10863;SDS011;5485;37.558;126.950;2022-07-15T06:50:10;8.93;;;8.05;;
10863;SDS011;5485;37.558;126.950;2022-07-15T06:52:37;8.93;;;8.05;;
10863;SDS011;5485;37.558;126.950;2022-07-15T06:55:04;9.18;;;8.35;;
10863;SDS011;5485;37.558;126.950;2022-07-15T06:57:32;9.68;;;8.70;;
10863;SDS011;5485;37.558;126.950;2022-07-15T07:00:00;10.50;;;7.97;;
10863;SDS011;5485;37.558;126.950;2022-07-15T07:02:27;11.05;;;9.50;;
10863;SDS011;5485;37.558;126.950;2022-07-15T07:04:55;11.50;;;10.13;;
10863;SDS011;5485;37.558;126.950;2022-07-15T07:07:22;9.55;;;8.50;;
10863;SDS011;5485;37.558;126.950;2022-07-15T07:09:49;10.32;;;9.10;;
10863;SDS011;5485;37.558;126.950;2022-07-15T07:12:16;12.02;;;9.07;;
10863;SDS011;5485;37.558;126.950;2022-07-15T07:14:43;11.20;;;8.63;;
10863;SDS011;5485;37.558;126.950;2022-07-15T07:17:10;9.90;;;8.50;;
10863;SDS011;5485;37.558;126.950;2022-07-15T07:19:36;8.30;;;7.55;;
10863;SDS011;5485;37.558;126.950;2022-07-15T07:22:04;8.60;;;7.70;;
10863;SDS011;5485;37.558;126.950;2022-07-15T07:24:31;9.13;;;7.68;;
10863;SDS011;5485;37.558;126.950;2022-07-15T07:26:57;8.32;;;7.47;;
10863;SDS011;5485;37.558;126.950;2022-07-15T07:29:24;10.00;;;7.18;;
10863;SDS011;5485;37.558;126.950;2022-07-15T07:31:51;8.30;;;7.35;;
10863;SDS011;5485;37.558;126.950;2022-07-15T07:34:18;7.50;;;6.80;;
10863;SDS011;5485;37.558;126.950;2022-07-15T07:36:46;7.57;;;6.88;;
10863;SDS011;5485;37.558;126.950;2022-07-15T07:39:14;6.95;;;6.35;;
10863;SDS011;5485;37.558;126.950;2022-07-15T07:41:42;9.65;;;7.25;;
10863;SDS011;5485;37.558;126.950;2022-07-15T07:44:09;7.20;;;6.60;;
10863;SDS011;5485;37.558;126.950;2022-07-15T07:46:36;7.30;;;6.03;;
10863;SDS011;5485;37.558;126.950;2022-07-15T07:49:03;7.65;;;6.20;;
10863;SDS011;5485;37.558;126.950;2022-07-15T07:51:30;6.88;;;6.00;;
10863;SDS011;5485;37.558;126.950;2022-07-15T07:53:57;8.18;;;5.15;;
10863;SDS011;5485;37.558;126.950;2022-07-15T07:56:24;5.72;;;5.22;;
10863;SDS011;5485;37.558;126.950;2022-07-15T07:58:50;7.07;;;5.80;;
10863;SDS011;5485;37.558;126.950;2022-07-15T08:01:17;6.28;;;5.03;;
10863;SDS011;5485;37.558;126.950;2022-07-15T08:03:44;7.97;;;5.90;;
10863;SDS011;5485;37.558;126.950;2022-07-15T08:06:11;6.10;;;5.43;;
10863;SDS011;5485;37.558;126.950;2022-07-15T08:08:38;6.68;;;5.20;;
10863;SDS011;5485;37.558;126.950;2022-07-15T08:11:05;6.47;;;5.20;;
10863;SDS011;5485;37.558;126.950;2022-07-15T08:13:32;5.38;;;4.75;;
10863;SDS011;5485;37.558;126.950;2022-07-15T08:15:59;6.22;;;5.22;;
10863;SDS011;5485;37.558;126.950;2022-07-15T08:18:26;6.68;;;5.80;;
10863;SDS011;5485;37.558;126.950;2022-07-15T08:20:53;7.97;;;5.97;;
10863;SDS011;5485;37.558;126.950;2022-07-15T08:23:20;6.75;;;5.30;;
10863;SDS011;5485;37.558;126.950;2022-07-15T08:25:48;6.25;;;5.65;;
10863;SDS011;5485;37.558;126.950;2022-07-15T08:28:16;8.95;;;6.00;;
10863;SDS011;5485;37.558;126.950;2022-07-15T08:30:44;6.82;;;6.10;;
10863;SDS011;5485;37.558;126.950;2022-07-15T08:33:14;8.43;;;6.47;;
10863;SDS011;5485;37.558;126.950;2022-07-15T08:35:41;7.22;;;5.82;;
10863;SDS011;5485;37.558;126.950;2022-07-15T08:38:09;8.93;;;6.35;;
10863;SDS011;5485;37.558;126.950;2022-07-15T08:40:38;8.65;;;6.32;;
10863;SDS011;5485;37.558;126.950;2022-07-15T08:43:06;7.22;;;6.20;;
10863;SDS011;5485;37.558;126.950;2022-07-15T08:45:35;7.50;;;6.63;;
10863;SDS011;5485;37.558;126.950;2022-07-15T08:48:04;7.57;;;6.72;;
10863;SDS011;5485;37.558;126.950;2022-07-15T08:50:32;7.35;;;6.45;;
10863;SDS011;5485;37.558;126.950;2022-07-15T08:53:00;9.15;;;6.45;;
10863;SDS011;5485;37.558;126.950;2022-07-15T08:55:29;8.10;;;7.32;;
10863;SDS011;5485;37.558;126.950;2022-07-15T08:57:57;7.82;;;6.80;;
10863;SDS011;5485;37.558;126.950;2022-07-15T09:00:24;8.63;;;6.72;;
10863;SDS011;5485;37.558;126.950;2022-07-15T09:02:56;9.27;;;6.97;;
10863;SDS011;5485;37.558;126.950;2022-07-15T09:07:57;7.63;;;6.93;;
10863;SDS011;5485;37.558;126.950;2022-07-15T09:13:31;8.38;;;7.53;;
10863;SDS011;5485;37.558;126.950;2022-07-15T09:16:07;11.80;;;8.75;;
10863;SDS011;5485;37.558;126.950;2022-07-15T09:18:37;8.43;;;7.63;;
10863;SDS011;5485;37.558;126.950;2022-07-15T09:21:19;9.23;;;7.03;;
10863;SDS011;5485;37.558;126.950;2022-07-15T09:23:46;8.15;;;7.35;;
10863;SDS011;5485;37.558;126.950;2022-07-15T09:26:26;9.93;;;8.38;;
10863;SDS011;5485;37.558;126.950;2022-07-15T09:28:55;13.05;;;9.57;;
10863;SDS011;5485;37.558;126.950;2022-07-15T09:31:33;11.68;;;8.65;;
10863;SDS011;5485;37.558;126.950;2022-07-15T09:34:20;10.73;;;9.60;;
10863;SDS011;5485;37.558;126.950;2022-07-15T09:36:50;10.77;;;9.20;;
10863;SDS011;5485;37.558;126.950;2022-07-15T09:39:23;10.65;;;9.55;;
10863;SDS011;5485;37.558;126.950;2022-07-15T09:41:51;11.75;;;9.75;;
10863;SDS011;5485;37.558;126.950;2022-07-15T09:44:22;13.35;;;10.93;;
10863;SDS011;5485;37.558;126.950;2022-07-15T09:46:51;12.45;;;10.20;;
10863;SDS011;5485;37.558;126.950;2022-07-15T09:51:54;13.15;;;10.85;;
10863;SDS011;5485;37.558;126.950;2022-07-15T09:54:22;12.25;;;10.95;;
10863;SDS011;5485;37.558;126.950;2022-07-15T09:56:51;15.05;;;11.68;;
10863;SDS011;5485;37.558;126.950;2022-07-15T09:59:19;12.90;;;11.00;;
10863;SDS011;5485;37.558;126.950;2022-07-15T10:01:46;13.13;;;11.70;;
10863;SDS011;5485;37.558;126.950;2022-07-15T10:04:17;12.40;;;10.95;;
10863;SDS011;5485;37.558;126.950;2022-07-15T10:06:49;13.15;;;11.40;;
10863;SDS011;5485;37.558;126.950;2022-07-15T10:09:24;13.88;;;11.93;;
10863;SDS011;5485;37.558;126.950;2022-07-15T10:11:53;13.25;;;11.85;;
10863;SDS011;5485;37.558;126.950;2022-07-15T10:31:32;13.73;;;12.27;;
10863;SDS011;5485;37.558;126.950;2022-07-15T10:39:16;16.13;;;14.20;;
10863;SDS011;5485;37.558;126.950;2022-07-15T10:41:51;13.85;;;12.35;;
10863;SDS011;5485;37.558;126.950;2022-07-15T10:44:25;17.83;;;14.10;;
10863;SDS011;5485;37.558;126.950;2022-07-15T10:49:41;16.85;;;15.13;;
10863;SDS011;5485;37.558;126.950;2022-07-15T10:55:05;18.35;;;16.40;;
10863;SDS011;5485;37.558;126.950;2022-07-15T11:00:06;20.23;;;15.85;;
10863;SDS011;5485;37.558;126.950;2022-07-15T11:03:29;20.88;;;17.15;;
10863;SDS011;5485;37.558;126.950;2022-07-15T11:13:48;19.23;;;17.15;;
10863;SDS011;5485;37.558;126.950;2022-07-15T11:16:17;24.40;;;18.20;;
10863;SDS011;5485;37.558;126.950;2022-07-15T11:18:47;22.52;;;18.48;;
10863;SDS011;5485;37.558;126.950;2022-07-15T11:21:19;24.40;;;17.67;;
10863;SDS011;5485;37.558;126.950;2022-07-15T11:23:47;20.10;;;17.80;;
10863;SDS011;5485;37.558;126.950;2022-07-15T11:26:15;20.92;;;16.80;;
10863;SDS011;5485;37.558;126.950;2022-07-15T11:28:49;25.23;;;17.77;;
10863;SDS011;5485;37.558;126.950;2022-07-15T11:31:25;21.65;;;18.08;;
10863;SDS011;5485;37.558;126.950;2022-07-15T11:33:53;26.00;;;19.40;;
10863;SDS011;5485;37.558;126.950;2022-07-15T11:36:21;22.33;;;18.75;;
10863;SDS011;5485;37.558;126.950;2022-07-15T11:38:49;24.95;;;20.05;;
10863;SDS011;5485;37.558;126.950;2022-07-15T11:41:16;28.38;;;21.27;;
10863;SDS011;5485;37.558;126.950;2022-07-15T11:44:08;28.23;;;21.88;;
10863;SDS011;5485;37.558;126.950;2022-07-15T11:46:56;27.23;;;21.77;;
10863;SDS011;5485;37.558;126.950;2022-07-15T11:49:25;29.83;;;22.25;;
10863;SDS011;5485;37.558;126.950;2022-07-15T11:51:52;30.55;;;22.80;;
10863;SDS011;5485;37.558;126.950;2022-07-15T11:54:20;28.58;;;22.98;;
10863;SDS011;5485;37.558;126.950;2022-07-15T11:56:54;30.60;;;23.08;;
10863;SDS011;5485;37.558;126.950;2022-07-15T11:59:32;30.20;;;24.13;;
10863;SDS011;5485;37.558;126.950;2022-07-15T12:02:09;31.05;;;23.83;;
10863;SDS011;5485;37.558;126.950;2022-07-15T12:04:38;32.90;;;23.55;;
10863;SDS011;5485;37.558;126.950;2022-07-15T12:07:07;33.45;;;25.63;;
10863;SDS011;5485;37.558;126.950;2022-07-15T12:09:43;31.88;;;25.33;;
10863;SDS011;5485;37.558;126.950;2022-07-15T12:12:10;30.58;;;24.95;;
10863;SDS011;5485;37.558;126.950;2022-07-15T12:14:38;30.42;;;24.48;;
10863;SDS011;5485;37.558;126.950;2022-07-15T12:17:05;32.03;;;25.88;;
10863;SDS011;5485;37.558;126.950;2022-07-15T12:19:33;31.42;;;24.40;;
10863;SDS011;5485;37.558;126.950;2022-07-15T12:22:04;30.45;;;23.90;;
10863;SDS011;5485;37.558;126.950;2022-07-15T12:24:41;31.15;;;23.70;;
10863;SDS011;5485;37.558;126.950;2022-07-15T12:27:09;28.02;;;23.70;;
10863;SDS011;5485;37.558;126.950;2022-07-15T12:29:38;32.63;;;25.20;;
10863;SDS011;5485;37.558;126.950;2022-07-15T12:32:07;35.70;;;27.15;;
10863;SDS011;5485;37.558;126.950;2022-07-15T12:37:20;33.13;;;25.92;;
10863;SDS011;5485;37.558;126.950;2022-07-15T12:39:57;34.60;;;26.48;;
10863;SDS011;5485;37.558;126.950;2022-07-15T12:48:06;37.55;;;27.52;;
10863;SDS011;5485;37.558;126.950;2022-07-15T12:53:15;36.65;;;28.05;;
10863;SDS011;5485;37.558;126.950;2022-07-15T12:55:47;35.55;;;27.05;;
10863;SDS011;5485;37.558;126.950;2022-07-15T12:58:24;37.35;;;27.13;;
10863;SDS011;5485;37.558;126.950;2022-07-15T13:01:03;39.95;;;28.08;;
10863;SDS011;5485;37.558;126.950;2022-07-15T13:03:33;34.30;;;26.40;;
10863;SDS011;5485;37.558;126.950;2022-07-15T13:06:01;36.15;;;25.52;;
10863;SDS011;5485;37.558;126.950;2022-07-15T13:08:30;36.80;;;28.63;;
10863;SDS011;5485;37.558;126.950;2022-07-15T13:11:00;36.28;;;27.23;;
10863;SDS011;5485;37.558;126.950;2022-07-15T13:13:30;40.75;;;32.42;;
10863;SDS011;5485;37.558;126.950;2022-07-15T13:15:59;46.88;;;31.63;;
10863;SDS011;5485;37.558;126.950;2022-07-15T13:18:28;52.33;;;35.15;;
10863;SDS011;5485;37.558;126.950;2022-07-15T13:20:56;45.60;;;31.42;;
10863;SDS011;5485;37.558;126.950;2022-07-15T13:23:27;37.33;;;28.40;;
10863;SDS011;5485;37.558;126.950;2022-07-15T13:25:54;38.67;;;29.02;;
10863;SDS011;5485;37.558;126.950;2022-07-15T13:28:21;42.38;;;29.67;;
10863;SDS011;5485;37.558;126.950;2022-07-15T13:30:50;40.97;;;30.90;;
10863;SDS011;5485;37.558;126.950;2022-07-15T13:33:18;43.88;;;30.80;;
10863;SDS011;5485;37.558;126.950;2022-07-15T13:35:45;41.10;;;30.40;;
10863;SDS011;5485;37.558;126.950;2022-07-15T13:38:12;43.35;;;31.70;;
10863;SDS011;5485;37.558;126.950;2022-07-15T13:40:40;43.17;;;30.67;;
10863;SDS011;5485;37.558;126.950;2022-07-15T13:43:10;44.95;;;31.90;;
10863;SDS011;5485;37.558;126.950;2022-07-15T13:45:37;45.85;;;31.92;;
10863;SDS011;5485;37.558;126.950;2022-07-15T13:48:04;46.33;;;32.28;;
10863;SDS011;5485;37.558;126.950;2022-07-15T13:50:34;43.90;;;31.98;;
10863;SDS011;5485;37.558;126.950;2022-07-15T13:53:18;47.05;;;31.10;;
10863;SDS011;5485;37.558;126.950;2022-07-15T13:55:45;45.53;;;31.52;;
10863;SDS011;5485;37.558;126.950;2022-07-15T13:58:12;44.83;;;32.05;;
10863;SDS011;5485;37.558;126.950;2022-07-15T14:00:39;45.17;;;31.20;;
10863;SDS011;5485;37.558;126.950;2022-07-15T14:03:07;44.30;;;31.23;;
10863;SDS011;5485;37.558;126.950;2022-07-15T14:05:37;46.05;;;31.77;;
10863;SDS011;5485;37.558;126.950;2022-07-15T14:08:04;44.70;;;31.77;;
10863;SDS011;5485;37.558;126.950;2022-07-15T14:10:31;41.72;;;29.45;;
10863;SDS011;5485;37.558;126.950;2022-07-15T14:12:58;44.10;;;31.15;;
10863;SDS011;5485;37.558;126.950;2022-07-15T14:15:25;43.83;;;31.33;;
10863;SDS011;5485;37.558;126.950;2022-07-15T14:17:54;42.85;;;31.30;;
10863;SDS011;5485;37.558;126.950;2022-07-15T14:20:21;41.65;;;32.03;;
10863;SDS011;5485;37.558;126.950;2022-07-15T14:22:48;41.83;;;30.15;;
10863;SDS011;5485;37.558;126.950;2022-07-15T14:25:19;46.85;;;32.47;;
10863;SDS011;5485;37.558;126.950;2022-07-15T14:27:46;40.45;;;30.17;;
10863;SDS011;5485;37.558;126.950;2022-07-15T14:30:13;41.55;;;30.48;;
10863;SDS011;5485;37.558;126.950;2022-07-15T14:32:41;42.60;;;31.73;;
10863;SDS011;5485;37.558;126.950;2022-07-15T14:35:08;41.53;;;30.58;;
10863;SDS011;5485;37.558;126.950;2022-07-15T14:37:35;40.85;;;32.10;;
10863;SDS011;5485;37.558;126.950;2022-07-15T14:40:03;45.97;;;36.22;;
10863;SDS011;5485;37.558;126.950;2022-07-15T14:42:31;49.03;;;36.63;;
10863;SDS011;5485;37.558;126.950;2022-07-15T14:45:03;55.70;;;38.42;;
10863;SDS011;5485;37.558;126.950;2022-07-15T14:47:30;49.65;;;35.95;;
10863;SDS011;5485;37.558;126.950;2022-07-15T14:49:57;49.60;;;37.28;;
10863;SDS011;5485;37.558;126.950;2022-07-15T14:52:24;49.30;;;35.95;;
10863;SDS011;5485;37.558;126.950;2022-07-15T14:54:51;48.40;;;34.78;;
10863;SDS011;5485;37.558;126.950;2022-07-15T14:57:18;49.35;;;35.00;;
10863;SDS011;5485;37.558;126.950;2022-07-15T14:59:45;51.85;;;35.92;;
10863;SDS011;5485;37.558;126.950;2022-07-15T15:02:11;51.83;;;36.97;;
10863;SDS011;5485;37.558;126.950;2022-07-15T15:04:38;44.72;;;33.58;;
10863;SDS011;5485;37.558;126.950;2022-07-15T15:07:05;46.08;;;35.35;;
10863;SDS011;5485;37.558;126.950;2022-07-15T15:09:32;48.88;;;34.40;;
10863;SDS011;5485;37.558;126.950;2022-07-15T15:12:02;46.00;;;32.72;;
10863;SDS011;5485;37.558;126.950;2022-07-15T15:14:29;44.42;;;32.42;;
10863;SDS011;5485;37.558;126.950;2022-07-15T15:16:55;44.03;;;32.38;;
10863;SDS011;5485;37.558;126.950;2022-07-15T15:19:22;47.38;;;32.35;;
10863;SDS011;5485;37.558;126.950;2022-07-15T15:21:51;41.22;;;31.30;;
10863;SDS011;5485;37.558;126.950;2022-07-15T15:24:21;40.28;;;31.85;;
10863;SDS011;5485;37.558;126.950;2022-07-15T15:26:48;41.65;;;30.50;;